createdAt,value
2019-03-18T00:01:25.753Z,8.33
2019-03-18T00:03:56.827Z,4.27
2019-03-18T00:06:25.927Z,5.30
2019-03-18T00:08:55.020Z,6.10
2019-03-18T00:11:24.119Z,5.70
2019-03-18T00:13:54.285Z,6.93
2019-03-18T00:16:23.687Z,4.77
2019-03-18T00:18:52.796Z,4.67
2019-03-18T00:21:22.200Z,5.83
2019-03-18T00:23:51.292Z,8.53
2019-03-18T00:26:20.399Z,5.30
2019-03-18T00:28:49.489Z,6.97
2019-03-18T00:31:18.664Z,2.90
2019-03-18T00:33:47.764Z,8.17
2019-03-18T00:36:16.884Z,4.43
2019-03-18T00:38:45.968Z,4.13
2019-03-18T00:41:15.068Z,2.60
2019-03-18T00:43:44.180Z,4.50
2019-03-18T00:46:13.280Z,3.97
2019-03-18T00:48:42.388Z,2.97
2019-03-18T00:51:11.492Z,5.30
2019-03-18T00:53:40.607Z,5.73
2019-03-18T00:56:09.688Z,6.90
2019-03-18T00:58:38.787Z,7.00
2019-03-18T01:01:07.976Z,7.37
2019-03-18T01:03:37.072Z,4.37
2019-03-18T01:06:06.507Z,4.93
2019-03-18T01:08:35.592Z,6.07
2019-03-18T01:11:05.260Z,2.30
2019-03-18T01:13:34.334Z,3.47
2019-03-18T01:16:03.462Z,7.27
2019-03-18T01:18:32.551Z,3.50
2019-03-18T01:21:01.654Z,4.63
2019-03-18T01:23:30.746Z,4.00
2019-03-18T01:25:59.842Z,2.40
2019-03-18T01:28:28.938Z,1.73
2019-03-18T01:30:58.063Z,4.00
2019-03-18T01:33:27.175Z,3.93
2019-03-18T01:35:56.274Z,2.20
2019-03-18T01:38:25.379Z,2.17
2019-03-18T01:40:54.459Z,2.40
2019-03-18T01:43:23.872Z,4.27
2019-03-18T01:45:53.004Z,5.60
2019-03-18T01:48:22.084Z,4.93
2019-03-18T01:50:51.183Z,1.63
2019-03-18T01:53:20.272Z,2.23
2019-03-18T01:55:49.367Z,3.70
2019-03-18T01:58:18.447Z,1.80
2019-03-18T02:00:47.547Z,1.53
2019-03-18T02:03:16.646Z,1.70
2019-03-18T02:05:45.752Z,2.77
2019-03-18T02:08:14.834Z,5.17
2019-03-18T02:10:44.011Z,3.50
2019-03-18T02:13:13.118Z,3.50
2019-03-18T02:15:52.847Z,3.03
2019-03-18T02:18:13.081Z,2.47
2019-03-18T02:20:42.177Z,4.43
2019-03-18T02:23:11.308Z,7.40
2019-03-18T02:25:40.641Z,4.87
2019-03-18T02:28:09.806Z,3.47
2019-03-18T02:30:38.924Z,6.90
2019-03-18T02:33:08.031Z,4.63
2019-03-18T02:35:37.152Z,2.30
2019-03-18T02:38:06.257Z,3.60
2019-03-18T02:40:35.343Z,3.70
2019-03-18T02:43:04.444Z,3.93
2019-03-18T02:45:33.914Z,3.80
2019-03-18T02:48:03.027Z,5.23
2019-03-18T02:50:32.104Z,5.30
2019-03-18T02:53:01.217Z,7.03
2019-03-18T02:55:30.321Z,3.53
2019-03-18T02:57:59.474Z,6.23
2019-03-18T03:00:28.567Z,6.73
2019-03-18T03:02:57.651Z,3.80
2019-03-18T03:05:27.099Z,2.33
2019-03-18T03:07:56.233Z,5.73
2019-03-18T03:10:25.401Z,3.53
2019-03-18T03:12:55.219Z,3.23
2019-03-18T03:15:24.325Z,4.70
2019-03-18T03:17:53.412Z,6.73
2019-03-18T03:20:22.514Z,2.40
2019-03-18T03:22:51.599Z,3.70
2019-03-18T03:25:24.533Z,3.00
2019-03-18T03:27:51.512Z,3.50
2019-03-18T03:30:20.626Z,4.67
2019-03-18T03:32:49.712Z,4.73
2019-03-18T03:35:18.898Z,3.50
2019-03-18T03:37:47.972Z,4.57
2019-03-18T03:40:17.091Z,3.00
2019-03-18T03:42:46.249Z,5.70
2019-03-18T03:45:15.445Z,6.00
2019-03-18T03:47:44.613Z,3.20
2019-03-18T03:50:13.979Z,5.50
2019-03-18T03:52:43.142Z,4.40
2019-03-18T03:55:12.243Z,6.27
2019-03-18T03:57:41.332Z,3.73
2019-03-18T04:00:10.452Z,4.80
2019-03-18T04:02:39.839Z,5.70
2019-03-18T04:05:09.061Z,4.20
2019-03-18T04:07:38.224Z,5.40
2019-03-18T04:10:07.495Z,4.70
2019-03-18T04:12:36.660Z,5.73
2019-03-18T04:15:05.852Z,5.03
2019-03-18T04:17:34.967Z,7.97
2019-03-18T04:20:04.505Z,3.70
2019-03-18T04:22:33.624Z,7.17
2019-03-18T04:25:03.052Z,5.57
2019-03-18T04:27:32.473Z,5.80
2019-03-18T04:30:01.843Z,8.17
2019-03-18T04:32:31.910Z,9.27
2019-03-18T04:35:01.015Z,6.20
2019-03-18T04:37:31.276Z,7.87
2019-03-18T04:40:00.371Z,7.00
2019-03-18T04:42:29.489Z,10.37
2019-03-18T04:44:58.585Z,8.17
2019-03-18T04:47:27.696Z,11.13
2019-03-18T04:49:56.873Z,7.13
2019-03-18T04:52:25.998Z,8.70
2019-03-18T04:54:55.117Z,13.30
2019-03-18T04:57:24.219Z,9.63
2019-03-18T04:59:53.309Z,15.50
2019-03-18T05:02:22.440Z,8.70
2019-03-18T05:04:51.523Z,9.27
2019-03-18T05:07:20.625Z,7.83
2019-03-18T05:09:49.715Z,12.50
2019-03-18T05:12:18.824Z,12.20
2019-03-18T05:14:47.908Z,9.73
2019-03-18T05:17:26.204Z,8.67
2019-03-18T05:19:47.801Z,7.97
2019-03-18T05:22:16.905Z,7.70
2019-03-18T05:24:45.979Z,9.20
2019-03-18T05:27:15.079Z,9.07
2019-03-18T05:29:44.396Z,19.40
2019-03-18T05:32:13.506Z,13.27
2019-03-18T05:34:42.604Z,9.93
2019-03-18T05:37:11.996Z,8.67
2019-03-18T05:39:41.125Z,16.97
2019-03-18T05:42:10.240Z,17.20
2019-03-18T05:44:39.328Z,11.10
2019-03-18T05:47:08.451Z,22.57
2019-03-18T05:49:37.544Z,20.10
2019-03-18T05:52:06.650Z,15.63
2019-03-18T05:54:35.772Z,13.20
2019-03-18T05:57:04.880Z,15.47
2019-03-18T05:59:34.009Z,14.87
2019-03-18T06:02:03.109Z,17.10
2019-03-18T06:04:32.218Z,22.37
2019-03-18T06:07:01.324Z,21.27
2019-03-18T06:09:30.444Z,18.57
2019-03-18T06:11:59.615Z,14.43
2019-03-18T06:14:28.723Z,13.50
2019-03-18T06:16:57.812Z,14.80
2019-03-18T06:19:26.927Z,17.03
2019-03-18T06:21:56.036Z,23.13
2019-03-18T06:24:25.164Z,23.37
2019-03-18T06:26:54.583Z,17.70
2019-03-18T06:29:23.700Z,19.27
2019-03-18T06:31:52.816Z,16.70
2019-03-18T06:34:21.913Z,17.83
2019-03-18T06:36:51.045Z,16.97
2019-03-18T06:39:20.399Z,17.37
2019-03-18T06:41:49.513Z,13.90
2019-03-18T06:44:18.599Z,18.47
2019-03-18T06:46:47.708Z,18.80
2019-03-18T06:49:16.806Z,16.17
2019-03-18T06:51:45.916Z,17.67
2019-03-18T06:54:15.004Z,18.53
2019-03-18T06:56:44.124Z,11.13
2019-03-18T06:59:13.232Z,17.07
2019-03-18T07:01:42.323Z,12.10
2019-03-18T07:04:11.418Z,20.80
2019-03-18T07:06:40.528Z,15.97
2019-03-18T07:09:09.716Z,26.80
2019-03-18T07:11:38.845Z,32.70
2019-03-18T07:14:07.953Z,20.00
2019-03-18T07:16:38.048Z,16.33
2019-03-18T07:19:07.194Z,13.43
2019-03-18T07:21:36.308Z,18.83
2019-03-18T07:24:05.455Z,22.67
2019-03-18T07:26:34.551Z,26.10
2019-03-18T07:29:03.689Z,17.43
2019-03-18T07:31:32.779Z,14.73
2019-03-18T07:34:01.902Z,20.80
2019-03-18T07:36:31.033Z,15.83
2019-03-18T07:39:00.118Z,23.23
2019-03-18T07:41:29.236Z,18.20
2019-03-18T07:43:58.327Z,24.27
2019-03-18T07:46:27.434Z,17.93
2019-03-18T07:48:56.522Z,27.27
2019-03-18T07:51:25.629Z,16.90
2019-03-18T07:53:54.715Z,16.33
2019-03-18T07:56:23.812Z,17.30
2019-03-18T07:58:52.912Z,21.33
2019-03-18T08:01:22.029Z,24.37
2019-03-18T08:03:51.424Z,23.80
2019-03-18T08:06:20.533Z,21.00
2019-03-18T08:08:49.599Z,19.53
2019-03-18T08:11:18.740Z,28.43
2019-03-18T08:13:48.911Z,21.90
2019-03-18T08:16:18.002Z,19.47
2019-03-18T08:18:47.089Z,18.83
2019-03-18T08:21:16.185Z,21.83
2019-03-18T08:23:45.277Z,22.27
2019-03-18T08:26:14.384Z,19.90
2019-03-18T08:28:43.465Z,11.87
2019-03-18T08:31:12.588Z,16.67
2019-03-18T08:33:41.752Z,21.50
2019-03-18T08:36:10.864Z,15.70
2019-03-18T08:38:39.968Z,12.20
2019-03-18T08:41:09.064Z,22.90
2019-03-18T08:43:38.178Z,12.63
2019-03-18T08:46:08.161Z,17.50
2019-03-18T08:48:37.256Z,21.20
2019-03-18T08:51:06.697Z,18.37
2019-03-18T08:53:35.798Z,12.90
2019-03-18T08:56:04.899Z,16.23
2019-03-18T08:58:34.004Z,12.63
2019-03-18T09:01:03.167Z,16.20
2019-03-18T09:03:32.280Z,12.93
2019-03-18T09:06:01.372Z,14.00
2019-03-18T09:08:30.452Z,17.33
2019-03-18T09:10:59.590Z,17.13
2019-03-18T09:13:28.752Z,13.93
2019-03-18T09:15:57.920Z,16.37
2019-03-18T09:18:27.008Z,19.43
2019-03-18T09:20:56.121Z,12.37
2019-03-18T09:23:25.213Z,19.83
2019-03-18T09:25:54.320Z,16.60
2019-03-18T09:28:23.425Z,12.77
2019-03-18T09:30:52.528Z,20.80
2019-03-18T09:33:21.948Z,22.53
2019-03-18T09:35:51.064Z,18.07
2019-03-18T09:38:20.187Z,13.27
2019-03-18T09:40:49.273Z,12.17
2019-03-18T09:43:18.367Z,5.20
2019-03-18T09:45:47.713Z,8.73
2019-03-18T09:48:16.858Z,9.87
2019-03-18T09:50:45.965Z,7.87
2019-03-18T09:53:15.056Z,10.23
2019-03-18T09:55:44.142Z,14.47
2019-03-18T09:58:13.245Z,9.63
2019-03-18T10:00:42.664Z,9.90
2019-03-18T10:03:11.748Z,17.53
2019-03-18T10:05:43.718Z,23.87
2019-03-18T10:08:11.652Z,20.70
2019-03-18T10:10:40.777Z,20.53
2019-03-18T10:13:09.876Z,22.57
2019-03-18T10:15:39.005Z,26.77
2019-03-18T10:18:08.098Z,20.37
2019-03-18T10:20:37.196Z,26.13
2019-03-18T10:23:06.315Z,19.27
2019-03-18T10:25:35.419Z,29.40
2019-03-18T10:28:04.540Z,18.07
2019-03-18T10:30:34.051Z,21.90
2019-03-18T10:33:03.337Z,36.70
2019-03-18T10:35:32.423Z,20.90
2019-03-18T10:38:01.545Z,23.33
2019-03-18T10:40:30.648Z,25.03
2019-03-18T10:42:59.829Z,19.97
2019-03-18T10:45:28.941Z,21.57
2019-03-18T10:47:59.056Z,24.20
2019-03-18T10:50:28.537Z,21.50
2019-03-18T10:52:57.638Z,25.97
2019-03-18T10:55:26.752Z,8.23
2019-03-18T10:57:55.840Z,10.33
2019-03-18T11:00:24.936Z,10.40
2019-03-18T11:02:54.016Z,20.17
2019-03-18T11:05:23.156Z,11.87
2019-03-18T11:07:52.311Z,16.20
2019-03-18T11:10:21.433Z,26.30
2019-03-18T11:12:51.470Z,27.30
2019-03-18T11:15:20.590Z,29.50
2019-03-18T11:17:49.677Z,15.73
2019-03-18T11:20:18.848Z,32.40
2019-03-18T11:22:48.128Z,26.17
2019-03-18T11:25:17.216Z,21.70
2019-03-18T11:27:46.328Z,24.33
2019-03-18T11:30:15.927Z,18.23
2019-03-18T11:32:45.091Z,9.90
2019-03-18T11:35:14.250Z,3.43
2019-03-18T11:37:43.389Z,9.10
2019-03-18T11:40:12.721Z,8.80
2019-03-18T11:42:41.904Z,5.43
2019-03-18T11:45:11.020Z,6.30
2019-03-18T11:47:40.119Z,6.00
2019-03-18T11:50:11.293Z,5.27
2019-03-18T11:52:40.487Z,14.43
2019-03-18T11:55:10.472Z,6.53
2019-03-18T11:57:39.561Z,6.53
2019-03-18T12:00:09.920Z,4.10
2019-03-18T12:02:39.015Z,5.60
2019-03-18T12:05:09.500Z,6.30
2019-03-18T12:07:38.585Z,13.97
2019-03-18T12:10:09.745Z,19.97
2019-03-18T12:12:38.854Z,13.83
2019-03-18T12:15:08.540Z,12.20
2019-03-18T12:17:37.624Z,16.90
2019-03-18T12:20:07.153Z,21.73
2019-03-18T12:22:36.256Z,20.63
2019-03-18T12:25:05.620Z,23.37
2019-03-18T12:27:34.864Z,23.47
2019-03-18T12:30:05.216Z,17.80
2019-03-18T12:32:34.389Z,27.33
2019-03-18T12:35:03.748Z,15.53
2019-03-18T12:37:32.853Z,22.87
2019-03-18T12:40:02.027Z,19.27
2019-03-18T12:42:32.300Z,28.03
2019-03-18T12:45:01.449Z,18.60
2019-03-18T12:47:30.597Z,19.43
2019-03-18T12:50:00.665Z,17.80
2019-03-18T12:52:29.775Z,14.20
2019-03-18T12:54:58.873Z,15.13
2019-03-18T12:57:28.005Z,23.50
2019-03-18T12:59:57.096Z,23.73
2019-03-18T13:02:26.291Z,21.97
2019-03-18T13:04:55.380Z,21.63
2019-03-18T13:07:24.496Z,17.10
2019-03-18T13:09:53.590Z,27.97
2019-03-18T13:12:22.719Z,21.03
2019-03-18T13:14:51.813Z,21.30
2019-03-18T13:17:20.941Z,26.03
2019-03-18T13:19:50.389Z,17.80
2019-03-18T13:22:19.504Z,18.87
2019-03-18T13:24:48.603Z,24.67
2019-03-18T13:27:17.717Z,16.20
2019-03-18T13:29:47.888Z,14.60
2019-03-18T13:32:17.036Z,18.73
2019-03-18T13:34:46.144Z,17.23
2019-03-18T13:37:15.260Z,17.70
2019-03-18T13:39:44.384Z,16.63
2019-03-18T13:42:13.483Z,26.30
2019-03-18T13:44:42.596Z,19.20
2019-03-18T13:47:13.468Z,24.13
2019-03-18T13:49:42.935Z,18.07
2019-03-18T13:52:12.017Z,22.47
2019-03-18T13:54:41.147Z,19.07
2019-03-18T13:57:10.457Z,18.53
2019-03-18T13:59:39.612Z,20.53
2019-03-18T14:02:08.780Z,25.00
2019-03-18T14:04:37.863Z,30.03
2019-03-18T14:07:07.016Z,20.03
2019-03-18T14:09:36.120Z,14.63
2019-03-18T14:12:05.311Z,16.67
2019-03-18T14:14:34.421Z,19.73
2019-03-18T14:17:03.803Z,27.77
2019-03-18T14:19:32.912Z,22.53
2019-03-18T14:22:01.992Z,19.37
2019-03-18T14:24:31.101Z,11.27
2019-03-18T14:27:00.261Z,9.23
2019-03-18T14:29:29.388Z,10.50
2019-03-18T14:31:58.479Z,19.93
2019-03-18T14:34:27.677Z,12.80
2019-03-18T14:36:57.276Z,12.37
2019-03-18T14:39:26.390Z,18.97
2019-03-18T14:41:55.501Z,14.23
2019-03-18T14:44:24.590Z,20.40
2019-03-18T14:46:53.952Z,17.80
2019-03-18T14:49:23.291Z,26.07
2019-03-18T14:51:52.388Z,25.50
2019-03-18T14:54:21.489Z,22.70
2019-03-18T14:56:50.595Z,23.47
2019-03-18T14:59:19.757Z,25.50
2019-03-18T15:01:48.900Z,34.50
2019-03-18T15:04:18.005Z,22.40
2019-03-18T15:06:47.120Z,10.83
2019-03-18T15:09:16.223Z,17.20
2019-03-18T15:11:45.318Z,19.03
2019-03-18T15:14:14.412Z,16.20
2019-03-18T15:16:43.524Z,15.40
2019-03-18T15:19:12.652Z,14.80
2019-03-18T15:21:41.743Z,16.77
2019-03-18T15:24:16.798Z,16.43
2019-03-18T15:26:41.646Z,10.40
2019-03-18T15:29:10.971Z,12.10
2019-03-18T15:31:40.061Z,17.73
2019-03-18T15:34:09.416Z,20.00
2019-03-18T15:36:38.512Z,14.33
2019-03-18T15:39:07.663Z,19.63
2019-03-18T15:41:36.765Z,16.60
2019-03-18T15:44:05.868Z,17.53
2019-03-18T15:46:34.989Z,23.00
2019-03-18T15:49:04.175Z,30.53
2019-03-18T15:51:33.282Z,23.63
2019-03-18T15:54:02.381Z,18.53
2019-03-18T15:56:31.507Z,22.10
2019-03-18T15:59:00.584Z,18.20
2019-03-18T16:01:30.005Z,26.87
2019-03-18T16:03:59.121Z,15.03
2019-03-18T16:06:28.200Z,20.03
2019-03-18T16:08:57.287Z,23.83
2019-03-18T16:11:26.368Z,18.13
2019-03-18T16:13:55.459Z,20.60
2019-03-18T16:16:24.549Z,23.00
2019-03-18T16:18:53.656Z,21.20
2019-03-18T16:21:22.799Z,13.87
2019-03-18T16:23:51.948Z,22.83
2019-03-18T16:26:21.040Z,17.43
2019-03-18T16:28:50.154Z,21.47
2019-03-18T16:31:19.273Z,31.67
2019-03-18T16:33:48.425Z,18.27
2019-03-18T16:36:17.517Z,18.93
2019-03-18T16:38:46.641Z,16.80
2019-03-18T16:41:15.802Z,15.60
2019-03-18T16:43:44.909Z,23.27
2019-03-18T16:46:14.007Z,20.83
2019-03-18T16:48:43.320Z,26.43
2019-03-18T16:51:12.459Z,29.73
2019-03-18T16:53:41.571Z,24.40
2019-03-18T16:56:10.659Z,26.00
2019-03-18T16:58:39.750Z,23.50
2019-03-18T17:01:09.180Z,22.40
2019-03-18T17:03:38.268Z,30.13
2019-03-18T17:06:07.360Z,19.03
2019-03-18T17:08:36.460Z,27.70
2019-03-18T17:11:05.880Z,22.97
2019-03-18T17:13:34.980Z,26.70
2019-03-18T17:16:04.161Z,29.37
2019-03-18T17:18:33.242Z,18.50
2019-03-18T17:21:02.688Z,19.10
2019-03-18T17:23:31.785Z,24.40
2019-03-18T17:26:01.175Z,17.53
2019-03-18T17:28:30.253Z,33.37
2019-03-18T17:30:59.379Z,21.00
2019-03-18T17:33:28.480Z,19.50
2019-03-18T17:35:57.619Z,19.90
2019-03-18T17:38:26.722Z,22.93
2019-03-18T17:40:55.920Z,24.73
2019-03-18T17:43:25.016Z,16.00
2019-03-18T17:45:54.116Z,18.20
2019-03-18T17:48:23.213Z,25.43
2019-03-18T17:50:52.308Z,23.37
2019-03-18T17:53:21.394Z,22.97
2019-03-18T17:55:50.525Z,16.43
2019-03-18T17:58:19.629Z,24.37
2019-03-18T18:00:51.904Z,24.33
2019-03-18T18:03:20.997Z,19.37
2019-03-18T18:05:51.446Z,18.17
2019-03-18T18:08:20.864Z,23.80
2019-03-18T18:10:49.972Z,15.57
2019-03-18T18:13:19.064Z,8.93
2019-03-18T18:15:48.166Z,12.77
2019-03-18T18:18:17.576Z,7.33
2019-03-18T18:20:46.677Z,8.17
2019-03-18T18:23:16.062Z,10.53
2019-03-18T18:25:45.404Z,15.40
2019-03-18T18:28:14.504Z,18.30
2019-03-18T18:30:43.710Z,11.77
2019-03-18T18:33:12.797Z,21.10
2019-03-18T18:35:41.912Z,19.73
2019-03-18T18:38:11.048Z,21.10
2019-03-18T18:40:40.193Z,23.87
2019-03-18T18:43:09.288Z,25.50
2019-03-18T18:45:38.402Z,18.30
2019-03-18T18:48:07.484Z,17.50
2019-03-18T18:50:36.588Z,18.37
2019-03-18T18:53:05.671Z,9.27
2019-03-18T18:55:34.772Z,13.03
2019-03-18T18:58:04.021Z,18.73
2019-03-18T19:00:33.124Z,13.93
2019-03-18T19:03:02.613Z,13.97
2019-03-18T19:05:31.707Z,8.87
2019-03-18T19:08:00.780Z,11.43
2019-03-18T19:10:30.137Z,12.53
2019-03-18T19:12:59.223Z,8.83
2019-03-18T19:15:28.408Z,18.00
2019-03-18T19:17:57.492Z,7.13
2019-03-18T19:20:26.600Z,15.40
2019-03-18T19:22:55.706Z,26.13
2019-03-18T19:25:24.814Z,13.30
2019-03-18T19:27:53.976Z,11.50
2019-03-18T19:30:23.256Z,13.03
2019-03-18T19:32:52.600Z,19.03
2019-03-18T19:35:21.861Z,12.43
2019-03-18T19:37:51.122Z,17.13
2019-03-18T19:40:20.248Z,15.40
2019-03-18T19:42:49.439Z,15.80
2019-03-18T19:45:18.917Z,17.53
2019-03-18T19:47:48.000Z,17.80
2019-03-18T19:50:18.220Z,19.60
2019-03-18T19:52:47.389Z,12.43
2019-03-18T19:55:16.560Z,12.23
2019-03-18T19:57:45.699Z,13.20
2019-03-18T20:00:17.304Z,9.50
2019-03-18T20:02:46.740Z,23.20
2019-03-18T20:05:18.816Z,19.50
2019-03-18T20:07:47.446Z,17.10
2019-03-18T20:10:16.588Z,17.97
2019-03-18T20:12:45.750Z,15.50
2019-03-18T20:15:16.618Z,16.73
2019-03-18T20:17:49.993Z,18.27
2019-03-18T20:20:19.204Z,13.30
2019-03-18T20:22:49.601Z,18.50
2019-03-18T20:25:19.093Z,14.63
2019-03-18T20:27:48.457Z,17.93
2019-03-18T20:30:17.575Z,14.70
2019-03-18T20:32:49.222Z,21.60
2019-03-18T20:35:18.360Z,23.67
2019-03-18T20:37:51.364Z,15.80
2019-03-18T20:40:19.532Z,14.93
2019-03-18T20:42:49.692Z,24.80
2019-03-18T20:45:18.929Z,19.00
2019-03-18T20:47:51.080Z,17.97
2019-03-18T20:50:20.408Z,18.20
2019-03-18T20:52:50.767Z,17.43
2019-03-18T20:55:20.029Z,15.23
2019-03-18T20:57:49.568Z,21.33
2019-03-18T21:00:18.812Z,19.07
2019-03-18T21:02:48.738Z,13.03
2019-03-18T21:05:17.900Z,9.43
2019-03-18T21:10:35.388Z,17.23
2019-03-18T21:13:04.690Z,16.60
2019-03-18T21:15:33.892Z,15.37
2019-03-18T21:18:04.263Z,16.87
2019-03-18T21:20:33.370Z,26.90
2019-03-18T21:23:02.514Z,18.87
2019-03-18T21:25:31.648Z,19.53
2019-03-18T21:28:00.761Z,16.27
2019-03-18T21:30:29.867Z,14.60
2019-03-18T21:32:59.389Z,18.30
2019-03-18T21:35:28.476Z,6.97
2019-03-18T21:37:57.632Z,15.97
2019-03-18T21:40:26.743Z,31.33
2019-03-18T21:42:56.047Z,18.10
2019-03-18T21:45:25.187Z,17.40
2019-03-18T21:47:54.388Z,16.40
2019-03-18T21:50:23.534Z,18.93
2019-03-18T21:52:52.695Z,19.60
2019-03-18T21:55:21.843Z,16.93
2019-03-18T21:57:50.986Z,18.77
2019-03-18T22:00:20.257Z,16.40
2019-03-18T22:02:49.427Z,14.33
2019-03-18T22:05:18.583Z,16.00
2019-03-18T22:07:49.008Z,16.13
2019-03-18T22:10:18.303Z,10.37
2019-03-18T22:12:49.312Z,24.07
2019-03-18T22:15:18.431Z,12.57
2019-03-18T22:17:49.330Z,14.93
2019-03-18T22:20:18.551Z,16.17
2019-03-18T22:22:49.352Z,15.50
2019-03-18T22:25:18.876Z,18.47
2019-03-18T22:27:50.577Z,20.03
2019-03-18T22:30:19.818Z,13.83
2019-03-18T22:32:49.642Z,19.60
2019-03-18T22:35:18.750Z,15.27
2019-03-18T22:37:50.502Z,15.73
2019-03-18T22:40:19.729Z,17.97
2019-03-18T22:42:51.080Z,17.57
2019-03-18T22:45:20.243Z,16.20
2019-03-18T22:47:49.900Z,15.80
2019-03-18T22:50:38.463Z,17.77
2019-03-18T22:53:07.573Z,20.87
2019-03-18T22:55:36.976Z,19.20
2019-03-18T22:58:06.072Z,15.50
2019-03-18T23:00:45.934Z,19.50
2019-03-18T23:03:15.479Z,15.97
2019-03-18T23:05:44.560Z,21.13
2019-03-18T23:08:13.717Z,15.90
2019-03-18T23:10:42.863Z,15.53
2019-03-18T23:13:11.942Z,22.47
2019-03-18T23:15:41.053Z,20.53
2019-03-18T23:18:10.147Z,17.73
2019-03-18T23:20:39.253Z,18.47
2019-03-18T23:23:08.336Z,15.83
2019-03-18T23:25:37.435Z,18.90
2019-03-18T23:28:06.527Z,19.40
2019-03-18T23:30:35.641Z,14.30
2019-03-18T23:33:04.724Z,24.83
2019-03-18T23:35:33.875Z,14.83
2019-03-18T23:38:03.045Z,22.57
2019-03-18T23:40:32.140Z,15.37
2019-03-18T23:43:01.252Z,17.20
2019-03-18T23:45:30.334Z,18.80
2019-03-18T23:47:59.439Z,12.50
2019-03-18T23:50:28.520Z,12.40
2019-03-18T23:52:57.628Z,13.67
2019-03-18T23:55:26.783Z,21.43
2019-03-18T23:57:55.879Z,16.73
